sensor_id;sensor_type;location;lat;lon;timestamp;temperature;humidity
30534;DHT22;17318;52.390;9.754;2022-07-23T00:01:33;18.30;98.10
30534;DHT22;17318;52.390;9.754;2022-07-23T00:03:58;18.30;98.10
30534;DHT22;17318;52.390;9.754;2022-07-23T00:06:25;18.30;98.10
30534;DHT22;17318;52.390;9.754;2022-07-23T00:08:50;18.30;98.40
30534;DHT22;17318;52.390;9.754;2022-07-23T00:11:16;18.30;98.10
30534;DHT22;17318;52.390;9.754;2022-07-23T00:13:42;18.30;98.00
30534;DHT22;17318;52.390;9.754;2022-07-23T00:16:11;18.30;98.20
30534;DHT22;17318;52.390;9.754;2022-07-23T00:18:37;18.30;98.20
30534;DHT22;17318;52.390;9.754;2022-07-23T00:21:11;18.30;98.10
30534;DHT22;17318;52.390;9.754;2022-07-23T00:23:37;18.20;98.20
30534;DHT22;17318;52.390;9.754;2022-07-23T00:26:03;18.10;98.40
30534;DHT22;17318;52.390;9.754;2022-07-23T00:28:36;18.10;98.30
30534;DHT22;17318;52.390;9.754;2022-07-23T00:31:02;18.10;98.40
30534;DHT22;17318;52.390;9.754;2022-07-23T00:33:28;18.10;98.50
30534;DHT22;17318;52.390;9.754;2022-07-23T00:35:54;18.10;98.60
30534;DHT22;17318;52.390;9.754;2022-07-23T00:38:19;18.10;98.60
30534;DHT22;17318;52.390;9.754;2022-07-23T00:40:45;18.10;98.50
30534;DHT22;17318;52.390;9.754;2022-07-23T00:43:11;18.10;98.50
30534;DHT22;17318;52.390;9.754;2022-07-23T00:45:37;18.10;98.50
30534;DHT22;17318;52.390;9.754;2022-07-23T00:48:02;18.20;98.60
30534;DHT22;17318;52.390;9.754;2022-07-23T00:50:28;18.20;98.50
30534;DHT22;17318;52.390;9.754;2022-07-23T00:52:54;18.10;98.60
30534;DHT22;17318;52.390;9.754;2022-07-23T00:55:20;18.10;98.50
30534;DHT22;17318;52.390;9.754;2022-07-23T00:57:46;18.20;98.70
30534;DHT22;17318;52.390;9.754;2022-07-23T01:00:14;18.10;98.70
30534;DHT22;17318;52.390;9.754;2022-07-23T01:02:40;18.10;98.60
30534;DHT22;17318;52.390;9.754;2022-07-23T01:05:07;18.00;98.60
30534;DHT22;17318;52.390;9.754;2022-07-23T01:07:33;18.00;98.80
30534;DHT22;17318;52.390;9.754;2022-07-23T01:10:00;18.00;98.80
30534;DHT22;17318;52.390;9.754;2022-07-23T01:12:26;18.00;98.90
30534;DHT22;17318;52.390;9.754;2022-07-23T01:14:58;18.00;99.00
30534;DHT22;17318;52.390;9.754;2022-07-23T01:17:24;17.90;99.00
30534;DHT22;17318;52.390;9.754;2022-07-23T01:19:50;17.90;98.90
30534;DHT22;17318;52.390;9.754;2022-07-23T01:22:19;17.90;99.20
30534;DHT22;17318;52.390;9.754;2022-07-23T01:24:45;17.90;99.00
30534;DHT22;17318;52.390;9.754;2022-07-23T01:27:11;17.80;99.10
30534;DHT22;17318;52.390;9.754;2022-07-23T01:29:38;17.80;99.10
30534;DHT22;17318;52.390;9.754;2022-07-23T01:32:04;17.70;99.10
30534;DHT22;17318;52.390;9.754;2022-07-23T01:34:30;17.70;99.30
30534;DHT22;17318;52.390;9.754;2022-07-23T01:36:56;17.60;99.30
30534;DHT22;17318;52.390;9.754;2022-07-23T01:39:21;17.60;99.40
30534;DHT22;17318;52.390;9.754;2022-07-23T01:41:47;17.50;99.50
30534;DHT22;17318;52.390;9.754;2022-07-23T01:44:13;17.50;99.10
30534;DHT22;17318;52.390;9.754;2022-07-23T01:46:39;17.50;99.30
30534;DHT22;17318;52.390;9.754;2022-07-23T01:49:05;17.50;99.30
30534;DHT22;17318;52.390;9.754;2022-07-23T01:51:31;17.40;99.50
30534;DHT22;17318;52.390;9.754;2022-07-23T01:53:56;17.40;99.60
30534;DHT22;17318;52.390;9.754;2022-07-23T01:56:22;17.40;99.50
30534;DHT22;17318;52.390;9.754;2022-07-23T01:58:49;17.40;99.50
30534;DHT22;17318;52.390;9.754;2022-07-23T02:01:15;17.40;99.40
30534;DHT22;17318;52.390;9.754;2022-07-23T02:03:40;17.40;99.40
30534;DHT22;17318;52.390;9.754;2022-07-23T02:06:15;17.40;99.50
30534;DHT22;17318;52.390;9.754;2022-07-23T02:08:41;17.40;99.50
30534;DHT22;17318;52.390;9.754;2022-07-23T02:11:13;17.40;99.60
30534;DHT22;17318;52.390;9.754;2022-07-23T02:13:39;17.40;99.50
30534;DHT22;17318;52.390;9.754;2022-07-23T02:16:13;17.40;99.50
30534;DHT22;17318;52.390;9.754;2022-07-23T02:18:39;17.40;99.60
30534;DHT22;17318;52.390;9.754;2022-07-23T02:21:10;17.50;99.60
30534;DHT22;17318;52.390;9.754;2022-07-23T02:23:36;17.50;99.50
30534;DHT22;17318;52.390;9.754;2022-07-23T02:26:02;17.50;99.40
30534;DHT22;17318;52.390;9.754;2022-07-23T02:28:28;17.50;99.40
30534;DHT22;17318;52.390;9.754;2022-07-23T02:30:54;17.60;99.60
30534;DHT22;17318;52.390;9.754;2022-07-23T02:33:20;17.60;99.50
30534;DHT22;17318;52.390;9.754;2022-07-23T02:35:45;17.60;99.30
30534;DHT22;17318;52.390;9.754;2022-07-23T02:38:11;17.70;99.50
30534;DHT22;17318;52.390;9.754;2022-07-23T02:40:37;17.60;99.40
30534;DHT22;17318;52.390;9.754;2022-07-23T02:43:03;17.70;99.30
30534;DHT22;17318;52.390;9.754;2022-07-23T02:45:29;17.70;99.10
30534;DHT22;17318;52.390;9.754;2022-07-23T02:47:54;17.60;99.30
30534;DHT22;17318;52.390;9.754;2022-07-23T02:50:20;17.60;99.40
30534;DHT22;17318;52.390;9.754;2022-07-23T02:52:46;17.60;99.40
30534;DHT22;17318;52.390;9.754;2022-07-23T02:55:12;17.60;99.40
30534;DHT22;17318;52.390;9.754;2022-07-23T02:57:38;17.60;99.40
30534;DHT22;17318;52.390;9.754;2022-07-23T03:00:05;17.60;99.60
30534;DHT22;17318;52.390;9.754;2022-07-23T03:02:31;17.70;99.60
30534;DHT22;17318;52.390;9.754;2022-07-23T03:04:57;17.60;99.90
30534;DHT22;17318;52.390;9.754;2022-07-23T03:07:23;17.70;99.50
30534;DHT22;17318;52.390;9.754;2022-07-23T03:09:49;17.70;99.40
30534;DHT22;17318;52.390;9.754;2022-07-23T03:12:14;17.70;99.60
30534;DHT22;17318;52.390;9.754;2022-07-23T03:14:41;17.70;99.50
30534;DHT22;17318;52.390;9.754;2022-07-23T03:17:07;17.80;99.40
30534;DHT22;17318;52.390;9.754;2022-07-23T03:19:33;17.80;99.70
30534;DHT22;17318;52.390;9.754;2022-07-23T03:21:58;17.70;99.50
30534;DHT22;17318;52.390;9.754;2022-07-23T03:24:24;17.80;99.70
30534;DHT22;17318;52.390;9.754;2022-07-23T03:27:10;17.80;99.60
30534;DHT22;17318;52.390;9.754;2022-07-23T03:29:36;17.60;99.90
30534;DHT22;17318;52.390;9.754;2022-07-23T03:32:03;17.70;99.90
30534;DHT22;17318;52.390;9.754;2022-07-23T03:34:29;17.70;99.90
30534;DHT22;17318;52.390;9.754;2022-07-23T03:36:54;17.80;99.90
30534;DHT22;17318;52.390;9.754;2022-07-23T03:39:20;17.80;99.90
30534;DHT22;17318;52.390;9.754;2022-07-23T03:41:46;17.80;99.90
30534;DHT22;17318;52.390;9.754;2022-07-23T03:44:11;17.90;99.90
30534;DHT22;17318;52.390;9.754;2022-07-23T03:46:37;17.90;99.90
30534;DHT22;17318;52.390;9.754;2022-07-23T03:49:03;17.90;99.90
30534;DHT22;17318;52.390;9.754;2022-07-23T03:51:28;17.80;99.90
30534;DHT22;17318;52.390;9.754;2022-07-23T03:53:54;17.70;99.90
30534;DHT22;17318;52.390;9.754;2022-07-23T03:56:20;17.70;99.90
30534;DHT22;17318;52.390;9.754;2022-07-23T03:58:46;17.70;99.90
30534;DHT22;17318;52.390;9.754;2022-07-23T04:01:12;17.70;99.90
30534;DHT22;17318;52.390;9.754;2022-07-23T04:03:38;17.70;99.90
30534;DHT22;17318;52.390;9.754;2022-07-23T04:06:10;17.70;99.90
30534;DHT22;17318;52.390;9.754;2022-07-23T04:08:35;17.80;99.90
30534;DHT22;17318;52.390;9.754;2022-07-23T04:11:01;17.70;99.90
30534;DHT22;17318;52.390;9.754;2022-07-23T04:13:27;17.70;99.90
30534;DHT22;17318;52.390;9.754;2022-07-23T04:15:52;17.70;99.90
30534;DHT22;17318;52.390;9.754;2022-07-23T04:18:18;17.60;99.90
30534;DHT22;17318;52.390;9.754;2022-07-23T04:20:44;17.70;99.90
30534;DHT22;17318;52.390;9.754;2022-07-23T04:23:10;17.70;99.90
30534;DHT22;17318;52.390;9.754;2022-07-23T04:25:36;17.70;99.90
30534;DHT22;17318;52.390;9.754;2022-07-23T04:28:02;17.80;99.90
30534;DHT22;17318;52.390;9.754;2022-07-23T04:30:27;17.70;99.90
30534;DHT22;17318;52.390;9.754;2022-07-23T04:32:53;17.60;99.90
30534;DHT22;17318;52.390;9.754;2022-07-23T04:35:19;17.70;99.90
30534;DHT22;17318;52.390;9.754;2022-07-23T04:37:45;17.70;99.90
30534;DHT22;17318;52.390;9.754;2022-07-23T04:40:12;17.50;99.90
30534;DHT22;17318;52.390;9.754;2022-07-23T04:42:38;17.60;99.90
30534;DHT22;17318;52.390;9.754;2022-07-23T04:45:04;17.60;99.90
30534;DHT22;17318;52.390;9.754;2022-07-23T04:47:30;17.60;99.90
30534;DHT22;17318;52.390;9.754;2022-07-23T04:49:56;17.60;99.90
30534;DHT22;17318;52.390;9.754;2022-07-23T04:52:23;17.70;99.90
30534;DHT22;17318;52.390;9.754;2022-07-23T04:54:49;17.60;99.90
30534;DHT22;17318;52.390;9.754;2022-07-23T04:57:15;17.60;99.90
30534;DHT22;17318;52.390;9.754;2022-07-23T04:59:41;17.60;99.90
30534;DHT22;17318;52.390;9.754;2022-07-23T05:02:07;17.60;99.90
30534;DHT22;17318;52.390;9.754;2022-07-23T05:04:33;17.60;99.90
30534;DHT22;17318;52.390;9.754;2022-07-23T05:06:59;17.60;99.90
30534;DHT22;17318;52.390;9.754;2022-07-23T05:09:24;17.60;99.90
30534;DHT22;17318;52.390;9.754;2022-07-23T05:11:50;17.60;99.90
30534;DHT22;17318;52.390;9.754;2022-07-23T05:14:16;17.70;99.90
30534;DHT22;17318;52.390;9.754;2022-07-23T05:16:42;17.70;99.90
30534;DHT22;17318;52.390;9.754;2022-07-23T05:19:07;17.70;99.90
30534;DHT22;17318;52.390;9.754;2022-07-23T05:21:33;17.60;99.90
30534;DHT22;17318;52.390;9.754;2022-07-23T05:23:59;17.70;99.90
30534;DHT22;17318;52.390;9.754;2022-07-23T05:26:25;17.70;99.90
30534;DHT22;17318;52.390;9.754;2022-07-23T05:28:51;17.70;99.90
30534;DHT22;17318;52.390;9.754;2022-07-23T05:31:17;17.70;99.90
30534;DHT22;17318;52.390;9.754;2022-07-23T05:33:43;17.70;99.90
30534;DHT22;17318;52.390;9.754;2022-07-23T05:36:09;17.80;99.90
30534;DHT22;17318;52.390;9.754;2022-07-23T05:38:35;17.70;99.90
30534;DHT22;17318;52.390;9.754;2022-07-23T05:41:01;17.80;99.90
30534;DHT22;17318;52.390;9.754;2022-07-23T05:43:27;17.80;99.90
30534;DHT22;17318;52.390;9.754;2022-07-23T05:45:53;17.80;99.90
30534;DHT22;17318;52.390;9.754;2022-07-23T05:48:19;17.80;99.90
30534;DHT22;17318;52.390;9.754;2022-07-23T05:50:46;17.90;99.90
30534;DHT22;17318;52.390;9.754;2022-07-23T05:53:12;18.00;99.90
30534;DHT22;17318;52.390;9.754;2022-07-23T05:55:37;18.00;99.90
30534;DHT22;17318;52.390;9.754;2022-07-23T05:58:03;18.00;99.90
30534;DHT22;17318;52.390;9.754;2022-07-23T06:00:30;18.10;99.90
30534;DHT22;17318;52.390;9.754;2022-07-23T06:02:56;18.20;99.90
30534;DHT22;17318;52.390;9.754;2022-07-23T06:05:22;18.20;99.90
30534;DHT22;17318;52.390;9.754;2022-07-23T06:07:48;18.30;99.90
30534;DHT22;17318;52.390;9.754;2022-07-23T06:10:14;18.40;99.90
30534;DHT22;17318;52.390;9.754;2022-07-23T06:12:40;18.50;99.90
30534;DHT22;17318;52.390;9.754;2022-07-23T06:15:06;18.50;99.90
30534;DHT22;17318;52.390;9.754;2022-07-23T06:17:32;18.50;99.90
30534;DHT22;17318;52.390;9.754;2022-07-23T06:19:58;18.50;99.90
30534;DHT22;17318;52.390;9.754;2022-07-23T06:22:24;18.60;99.90
30534;DHT22;17318;52.390;9.754;2022-07-23T06:24:50;18.60;99.90
30534;DHT22;17318;52.390;9.754;2022-07-23T06:27:17;18.60;99.90
30534;DHT22;17318;52.390;9.754;2022-07-23T06:29:43;18.60;99.90
30534;DHT22;17318;52.390;9.754;2022-07-23T06:32:09;18.50;99.90
30534;DHT22;17318;52.390;9.754;2022-07-23T06:34:35;18.60;99.90
30534;DHT22;17318;52.390;9.754;2022-07-23T06:37:01;18.80;99.90
30534;DHT22;17318;52.390;9.754;2022-07-23T06:39:26;18.70;99.90
30534;DHT22;17318;52.390;9.754;2022-07-23T06:41:52;18.70;99.90
30534;DHT22;17318;52.390;9.754;2022-07-23T06:44:18;18.80;99.90
30534;DHT22;17318;52.390;9.754;2022-07-23T06:46:44;18.70;99.70
30534;DHT22;17318;52.390;9.754;2022-07-23T06:49:09;18.70;99.50
30534;DHT22;17318;52.390;9.754;2022-07-23T06:51:35;18.70;99.30
30534;DHT22;17318;52.390;9.754;2022-07-23T06:54:01;18.80;99.50
30534;DHT22;17318;52.390;9.754;2022-07-23T06:56:27;18.90;99.30
30534;DHT22;17318;52.390;9.754;2022-07-23T06:58:53;18.90;99.10
30534;DHT22;17318;52.390;9.754;2022-07-23T07:01:34;18.90;99.20
30534;DHT22;17318;52.390;9.754;2022-07-23T07:03:59;19.00;99.20
30534;DHT22;17318;52.390;9.754;2022-07-23T07:06:25;19.00;99.30
30534;DHT22;17318;52.390;9.754;2022-07-23T07:08:51;19.10;99.30
30534;DHT22;17318;52.390;9.754;2022-07-23T07:11:22;19.20;98.60
30534;DHT22;17318;52.390;9.754;2022-07-23T07:13:49;19.30;98.50
30534;DHT22;17318;52.390;9.754;2022-07-23T07:16:34;19.30;98.00
30534;DHT22;17318;52.390;9.754;2022-07-23T07:18:59;19.40;97.40
30534;DHT22;17318;52.390;9.754;2022-07-23T07:21:28;19.40;97.40
30534;DHT22;17318;52.390;9.754;2022-07-23T07:23:54;19.50;96.90
30534;DHT22;17318;52.390;9.754;2022-07-23T07:26:29;19.50;96.70
30534;DHT22;17318;52.390;9.754;2022-07-23T07:28:56;19.50;96.50
30534;DHT22;17318;52.390;9.754;2022-07-23T07:31:22;19.60;96.20
30534;DHT22;17318;52.390;9.754;2022-07-23T07:33:48;19.80;96.10
30534;DHT22;17318;52.390;9.754;2022-07-23T07:36:40;19.90;95.70
30534;DHT22;17318;52.390;9.754;2022-07-23T07:39:08;20.00;95.50
30534;DHT22;17318;52.390;9.754;2022-07-23T07:41:36;19.90;94.80
30534;DHT22;17318;52.390;9.754;2022-07-23T07:44:01;19.90;95.10
30534;DHT22;17318;52.390;9.754;2022-07-23T07:46:27;19.80;95.00
30534;DHT22;17318;52.390;9.754;2022-07-23T07:48:53;19.80;95.20
30534;DHT22;17318;52.390;9.754;2022-07-23T07:51:19;19.80;95.60
30534;DHT22;17318;52.390;9.754;2022-07-23T07:53:45;19.80;95.60
30534;DHT22;17318;52.390;9.754;2022-07-23T07:56:25;19.90;95.40
30534;DHT22;17318;52.390;9.754;2022-07-23T07:58:51;19.90;95.20
30534;DHT22;17318;52.390;9.754;2022-07-23T08:01:29;19.90;95.20
30534;DHT22;17318;52.390;9.754;2022-07-23T08:03:55;19.90;94.70
30534;DHT22;17318;52.390;9.754;2022-07-23T08:06:26;19.90;95.00
30534;DHT22;17318;52.390;9.754;2022-07-23T08:08:52;19.90;94.70
30534;DHT22;17318;52.390;9.754;2022-07-23T08:11:24;19.90;94.80
30534;DHT22;17318;52.390;9.754;2022-07-23T08:13:50;20.00;94.40
30534;DHT22;17318;52.390;9.754;2022-07-23T08:16:34;20.10;94.60
30534;DHT22;17318;52.390;9.754;2022-07-23T08:19:00;20.10;94.50
30534;DHT22;17318;52.390;9.754;2022-07-23T08:21:26;20.40;94.60
30534;DHT22;17318;52.390;9.754;2022-07-23T08:23:51;20.60;93.90
30534;DHT22;17318;52.390;9.754;2022-07-23T08:26:26;20.80;93.80
30534;DHT22;17318;52.390;9.754;2022-07-23T08:28:52;21.00;93.50
30534;DHT22;17318;52.390;9.754;2022-07-23T08:31:27;21.10;92.40
30534;DHT22;17318;52.390;9.754;2022-07-23T08:33:53;20.90;92.20
30534;DHT22;17318;52.390;9.754;2022-07-23T08:36:31;20.90;92.40
30534;DHT22;17318;52.390;9.754;2022-07-23T08:38:58;21.40;92.50
30534;DHT22;17318;52.390;9.754;2022-07-23T08:41:25;22.00;91.70
30534;DHT22;17318;52.390;9.754;2022-07-23T08:43:51;22.30;91.20
30534;DHT22;17318;52.390;9.754;2022-07-23T08:46:19;23.40;90.80
30534;DHT22;17318;52.390;9.754;2022-07-23T08:48:48;23.90;88.50
30534;DHT22;17318;52.390;9.754;2022-07-23T08:51:36;24.70;83.50
30534;DHT22;17318;52.390;9.754;2022-07-23T08:54:02;25.40;80.70
30534;DHT22;17318;52.390;9.754;2022-07-23T08:56:28;25.70;80.50
30534;DHT22;17318;52.390;9.754;2022-07-23T08:58:54;24.80;78.60
30534;DHT22;17318;52.390;9.754;2022-07-23T09:01:20;24.80;81.90
30534;DHT22;17318;52.390;9.754;2022-07-23T09:03:46;24.60;80.60
30534;DHT22;17318;52.390;9.754;2022-07-23T09:06:20;23.90;79.80
30534;DHT22;17318;52.390;9.754;2022-07-23T09:08:46;23.80;79.30
30534;DHT22;17318;52.390;9.754;2022-07-23T09:11:21;23.70;79.90
30534;DHT22;17318;52.390;9.754;2022-07-23T09:13:52;23.70;80.30
30534;DHT22;17318;52.390;9.754;2022-07-23T09:16:40;24.40;77.70
30534;DHT22;17318;52.390;9.754;2022-07-23T09:19:07;24.10;78.00
30534;DHT22;17318;52.390;9.754;2022-07-23T09:21:54;23.90;79.50
30534;DHT22;17318;52.390;9.754;2022-07-23T09:24:21;24.70;78.30
30534;DHT22;17318;52.390;9.754;2022-07-23T09:26:48;24.60;77.20
30534;DHT22;17318;52.390;9.754;2022-07-23T09:29:20;24.80;76.90
30534;DHT22;17318;52.390;9.754;2022-07-23T09:31:59;24.30;76.90
30534;DHT22;17318;52.390;9.754;2022-07-23T09:34:29;24.30;78.20
30534;DHT22;17318;52.390;9.754;2022-07-23T09:37:08;24.70;77.50
30534;DHT22;17318;52.390;9.754;2022-07-23T09:39:35;24.40;75.70
30534;DHT22;17318;52.390;9.754;2022-07-23T09:42:24;24.40;76.50
30534;DHT22;17318;52.390;9.754;2022-07-23T09:44:55;24.00;77.30
30534;DHT22;17318;52.390;9.754;2022-07-23T09:47:23;23.60;78.50
30534;DHT22;17318;52.390;9.754;2022-07-23T09:50:07;23.10;79.00
30534;DHT22;17318;52.390;9.754;2022-07-23T09:52:46;23.20;79.70
30534;DHT22;17318;52.390;9.754;2022-07-23T09:55:16;23.00;79.10
30534;DHT22;17318;52.390;9.754;2022-07-23T09:57:43;23.10;77.60
30534;DHT22;17318;52.390;9.754;2022-07-23T10:00:16;23.30;77.50
30534;DHT22;17318;52.390;9.754;2022-07-23T10:02:42;23.20;78.10
30534;DHT22;17318;52.390;9.754;2022-07-23T10:05:10;23.80;77.50
30534;DHT22;17318;52.390;9.754;2022-07-23T10:07:40;23.80;76.80
30534;DHT22;17318;52.390;9.754;2022-07-23T10:10:07;23.60;77.00
30534;DHT22;17318;52.390;9.754;2022-07-23T10:12:33;24.10;76.40
30534;DHT22;17318;52.390;9.754;2022-07-23T10:15:27;24.20;75.00
30534;DHT22;17318;52.390;9.754;2022-07-23T10:17:53;23.90;74.10
30534;DHT22;17318;52.390;9.754;2022-07-23T10:20:19;23.90;76.00
30534;DHT22;17318;52.390;9.754;2022-07-23T10:23:02;23.70;76.30
30534;DHT22;17318;52.390;9.754;2022-07-23T10:25:51;23.80;76.40
30534;DHT22;17318;52.390;9.754;2022-07-23T10:30:59;23.40;75.70
30534;DHT22;17318;52.390;9.754;2022-07-23T10:37:17;23.40;75.90
30534;DHT22;17318;52.390;9.754;2022-07-23T10:40:09;23.50;76.80
30534;DHT22;17318;52.390;9.754;2022-07-23T10:42:36;23.40;75.70
30534;DHT22;17318;52.390;9.754;2022-07-23T10:45:29;23.40;74.50
30534;DHT22;17318;52.390;9.754;2022-07-23T10:47:55;23.60;73.80
30534;DHT22;17318;52.390;9.754;2022-07-23T10:50:27;23.40;74.80
30534;DHT22;17318;52.390;9.754;2022-07-23T10:53:17;23.50;75.30
30534;DHT22;17318;52.390;9.754;2022-07-23T10:55:51;23.50;74.00
30534;DHT22;17318;52.390;9.754;2022-07-23T10:58:22;23.50;75.20
30534;DHT22;17318;52.390;9.754;2022-07-23T11:00:49;23.70;75.20
30534;DHT22;17318;52.390;9.754;2022-07-23T11:03:37;23.60;75.30
30534;DHT22;17318;52.390;9.754;2022-07-23T11:06:03;23.80;74.20
30534;DHT22;17318;52.390;9.754;2022-07-23T11:08:29;23.70;74.40
30534;DHT22;17318;52.390;9.754;2022-07-23T11:13:38;23.80;72.60
30534;DHT22;17318;52.390;9.754;2022-07-23T11:16:26;23.70;73.50
30534;DHT22;17318;52.390;9.754;2022-07-23T11:18:55;23.80;72.90
30534;DHT22;17318;52.390;9.754;2022-07-23T11:24:06;23.60;73.30
30534;DHT22;17318;52.390;9.754;2022-07-23T11:34:43;23.80;71.80
30534;DHT22;17318;52.390;9.754;2022-07-23T11:37:11;23.80;72.30
30534;DHT22;17318;52.390;9.754;2022-07-23T11:39:38;23.80;71.80
30534;DHT22;17318;52.390;9.754;2022-07-23T11:42:06;23.80;72.20
30534;DHT22;17318;52.390;9.754;2022-07-23T11:44:32;23.80;71.90
30534;DHT22;17318;52.390;9.754;2022-07-23T11:49:29;23.90;72.10
30534;DHT22;17318;52.390;9.754;2022-07-23T11:52:12;24.10;71.70
30534;DHT22;17318;52.390;9.754;2022-07-23T11:57:16;24.20;71.10
30534;DHT22;17318;52.390;9.754;2022-07-23T11:59:43;24.20;70.10
30534;DHT22;17318;52.390;9.754;2022-07-23T12:02:09;24.10;69.60
30534;DHT22;17318;52.390;9.754;2022-07-23T12:04:50;24.20;70.40
30534;DHT22;17318;52.390;9.754;2022-07-23T12:09:52;24.10;70.10
30534;DHT22;17318;52.390;9.754;2022-07-23T12:12:18;24.20;70.90
30534;DHT22;17318;52.390;9.754;2022-07-23T12:14:55;23.90;69.70
30534;DHT22;17318;52.390;9.754;2022-07-23T12:17:24;24.00;71.10
30534;DHT22;17318;52.390;9.754;2022-07-23T12:19:54;23.90;70.90
30534;DHT22;17318;52.390;9.754;2022-07-23T12:22:21;24.00;70.80
30534;DHT22;17318;52.390;9.754;2022-07-23T12:24:55;24.20;70.80
30534;DHT22;17318;52.390;9.754;2022-07-23T12:27:21;23.80;69.90
30534;DHT22;17318;52.390;9.754;2022-07-23T12:29:47;23.60;71.80
30534;DHT22;17318;52.390;9.754;2022-07-23T12:32:24;23.80;72.00
30534;DHT22;17318;52.390;9.754;2022-07-23T12:35:06;23.80;71.00
30534;DHT22;17318;52.390;9.754;2022-07-23T12:37:39;23.90;71.50
30534;DHT22;17318;52.390;9.754;2022-07-23T12:40:26;24.20;70.90
30534;DHT22;17318;52.390;9.754;2022-07-23T12:43:26;24.20;70.20
30534;DHT22;17318;52.390;9.754;2022-07-23T12:45:57;23.90;69.60
30534;DHT22;17318;52.390;9.754;2022-07-23T12:48:34;23.90;70.60
30534;DHT22;17318;52.390;9.754;2022-07-23T12:51:08;24.00;70.30
30534;DHT22;17318;52.390;9.754;2022-07-23T12:54:08;24.10;70.30
30534;DHT22;17318;52.390;9.754;2022-07-23T12:56:36;23.80;69.80
30534;DHT22;17318;52.390;9.754;2022-07-23T12:59:07;23.90;69.20
30534;DHT22;17318;52.390;9.754;2022-07-23T13:01:40;24.00;69.30
30534;DHT22;17318;52.390;9.754;2022-07-23T13:04:19;24.00;69.50
30534;DHT22;17318;52.390;9.754;2022-07-23T13:06:47;24.00;69.70
30534;DHT22;17318;52.390;9.754;2022-07-23T13:09:16;24.10;69.30
30534;DHT22;17318;52.390;9.754;2022-07-23T13:11:43;24.10;68.70
30534;DHT22;17318;52.390;9.754;2022-07-23T13:14:10;24.10;68.40
30534;DHT22;17318;52.390;9.754;2022-07-23T13:16:52;24.00;67.80
30534;DHT22;17318;52.390;9.754;2022-07-23T13:19:19;23.90;68.10
30534;DHT22;17318;52.390;9.754;2022-07-23T13:21:48;24.00;68.10
30534;DHT22;17318;52.390;9.754;2022-07-23T13:24:14;23.90;68.10
30534;DHT22;17318;52.390;9.754;2022-07-23T13:26:40;23.90;68.50
30534;DHT22;17318;52.390;9.754;2022-07-23T13:29:06;23.90;68.50
30534;DHT22;17318;52.390;9.754;2022-07-23T13:31:32;23.90;67.70
30534;DHT22;17318;52.390;9.754;2022-07-23T13:33:58;23.80;67.70
30534;DHT22;17318;52.390;9.754;2022-07-23T13:36:36;24.00;68.20
30534;DHT22;17318;52.390;9.754;2022-07-23T13:39:03;24.10;68.40
30534;DHT22;17318;52.390;9.754;2022-07-23T13:41:28;24.10;67.80
30534;DHT22;17318;52.390;9.754;2022-07-23T13:43:54;23.90;67.60
30534;DHT22;17318;52.390;9.754;2022-07-23T13:46:21;23.80;67.90
30534;DHT22;17318;52.390;9.754;2022-07-23T13:48:47;23.80;68.70
30534;DHT22;17318;52.390;9.754;2022-07-23T13:51:18;23.90;67.90
30534;DHT22;17318;52.390;9.754;2022-07-23T13:53:45;23.90;67.60
30534;DHT22;17318;52.390;9.754;2022-07-23T13:56:11;24.00;68.00
30534;DHT22;17318;52.390;9.754;2022-07-23T13:58:37;24.10;67.90
30534;DHT22;17318;52.390;9.754;2022-07-23T14:01:03;24.00;67.50
30534;DHT22;17318;52.390;9.754;2022-07-23T14:03:29;24.10;67.40
30534;DHT22;17318;52.390;9.754;2022-07-23T14:05:54;24.10;67.20
30534;DHT22;17318;52.390;9.754;2022-07-23T14:08:20;24.00;67.00
30534;DHT22;17318;52.390;9.754;2022-07-23T14:10:46;24.00;67.10
30534;DHT22;17318;52.390;9.754;2022-07-23T14:13:12;24.00;67.20
30534;DHT22;17318;52.390;9.754;2022-07-23T14:15:38;24.10;67.50
30534;DHT22;17318;52.390;9.754;2022-07-23T14:18:06;24.20;67.50
30534;DHT22;17318;52.390;9.754;2022-07-23T14:20:31;24.20;66.90
30534;DHT22;17318;52.390;9.754;2022-07-23T14:22:57;24.20;65.70
30534;DHT22;17318;52.390;9.754;2022-07-23T14:25:26;24.20;66.20
30534;DHT22;17318;52.390;9.754;2022-07-23T14:27:52;24.20;66.10
30534;DHT22;17318;52.390;9.754;2022-07-23T14:30:18;24.20;66.50
30534;DHT22;17318;52.390;9.754;2022-07-23T14:32:46;24.20;66.40
30534;DHT22;17318;52.390;9.754;2022-07-23T14:35:12;24.20;66.50
30534;DHT22;17318;52.390;9.754;2022-07-23T14:37:39;24.10;67.10
30534;DHT22;17318;52.390;9.754;2022-07-23T14:40:05;24.10;66.70
30534;DHT22;17318;52.390;9.754;2022-07-23T14:42:31;24.10;66.50
30534;DHT22;17318;52.390;9.754;2022-07-23T14:44:57;24.20;66.20
30534;DHT22;17318;52.390;9.754;2022-07-23T14:47:22;24.20;66.20
30534;DHT22;17318;52.390;9.754;2022-07-23T14:49:48;24.20;66.60
30534;DHT22;17318;52.390;9.754;2022-07-23T14:52:15;24.20;66.70
30534;DHT22;17318;52.390;9.754;2022-07-23T14:54:40;24.20;66.20
30534;DHT22;17318;52.390;9.754;2022-07-23T14:57:06;24.20;65.90
30534;DHT22;17318;52.390;9.754;2022-07-23T14:59:34;24.10;65.40
30534;DHT22;17318;52.390;9.754;2022-07-23T15:02:00;24.00;65.70
30534;DHT22;17318;52.390;9.754;2022-07-23T15:04:26;24.00;65.70
30534;DHT22;17318;52.390;9.754;2022-07-23T15:06:55;24.00;66.50
30534;DHT22;17318;52.390;9.754;2022-07-23T15:09:21;24.10;66.10
30534;DHT22;17318;52.390;9.754;2022-07-23T15:14:50;24.00;66.40
30534;DHT22;17318;52.390;9.754;2022-07-23T15:17:16;24.00;66.20
30534;DHT22;17318;52.390;9.754;2022-07-23T15:19:42;24.00;66.00
30534;DHT22;17318;52.390;9.754;2022-07-23T15:22:20;24.00;66.20
30534;DHT22;17318;52.390;9.754;2022-07-23T15:24:46;24.10;65.90
30534;DHT22;17318;52.390;9.754;2022-07-23T15:27:12;24.00;65.80
30534;DHT22;17318;52.390;9.754;2022-07-23T15:32:44;23.90;66.10
30534;DHT22;17318;52.390;9.754;2022-07-23T15:35:09;24.00;66.30
30534;DHT22;17318;52.390;9.754;2022-07-23T15:37:35;24.10;66.10
30534;DHT22;17318;52.390;9.754;2022-07-23T15:40:01;24.10;66.50
30534;DHT22;17318;52.390;9.754;2022-07-23T15:42:30;24.00;66.10
30534;DHT22;17318;52.390;9.754;2022-07-23T15:44:56;24.10;66.00
30534;DHT22;17318;52.390;9.754;2022-07-23T15:47:21;24.00;65.80
30534;DHT22;17318;52.390;9.754;2022-07-23T15:49:48;24.00;66.00
30534;DHT22;17318;52.390;9.754;2022-07-23T15:52:14;24.10;66.30
30534;DHT22;17318;52.390;9.754;2022-07-23T15:54:40;24.00;65.80
30534;DHT22;17318;52.390;9.754;2022-07-23T15:57:05;24.00;65.90
30534;DHT22;17318;52.390;9.754;2022-07-23T15:59:31;24.00;64.80
30534;DHT22;17318;52.390;9.754;2022-07-23T16:01:58;23.90;65.10
30534;DHT22;17318;52.390;9.754;2022-07-23T16:04:24;23.90;65.10
30534;DHT22;17318;52.390;9.754;2022-07-23T16:06:50;23.90;65.20
30534;DHT22;17318;52.390;9.754;2022-07-23T16:09:16;23.90;65.20
30534;DHT22;17318;52.390;9.754;2022-07-23T16:11:41;23.90;65.20